createdAt,value
2018-08-13T00:00:16.663Z,15.36
2018-08-13T00:01:16.737Z,15.38
2018-08-13T00:02:17.014Z,15.36
2018-08-13T00:03:16.266Z,15.46
2018-08-13T00:04:16.539Z,15.50
2018-08-13T00:05:16.803Z,15.52
2018-08-13T00:06:17.072Z,15.57
2018-08-13T00:07:16.347Z,15.59
2018-08-13T00:08:16.621Z,15.60
2018-08-13T00:09:16.893Z,15.54
2018-08-13T00:10:17.174Z,15.56
2018-08-13T00:11:16.248Z,15.47
2018-08-13T00:12:16.537Z,15.38
2018-08-13T00:13:16.810Z,15.11
2018-08-13T00:14:17.083Z,15.04
2018-08-13T00:15:16.351Z,14.85
2018-08-13T00:16:16.615Z,14.73
2018-08-13T00:17:16.876Z,14.62
2018-08-13T00:18:17.155Z,14.60
2018-08-13T00:19:16.429Z,14.57
2018-08-13T00:20:16.712Z,14.52
2018-08-13T00:21:16.758Z,14.36
2018-08-13T00:22:17.023Z,14.30
2018-08-13T00:23:16.497Z,14.25
2018-08-13T00:24:16.767Z,14.26
2018-08-13T00:25:17.043Z,14.19
2018-08-13T00:26:16.308Z,14.18
2018-08-13T00:27:16.593Z,14.23
2018-08-13T00:28:16.862Z,14.22
2018-08-13T00:29:17.135Z,14.16
2018-08-13T00:30:16.413Z,14.11
2018-08-13T00:31:16.452Z,14.08
2018-08-13T00:32:16.714Z,14.05
2018-08-13T00:33:16.981Z,14.00
2018-08-13T00:34:16.254Z,14.02
2018-08-13T00:35:16.543Z,14.04
2018-08-13T00:36:16.849Z,14.02
2018-08-13T00:37:17.133Z,14.05
2018-08-13T00:38:16.398Z,14.04
2018-08-13T00:39:16.674Z,14.05
2018-08-13T00:40:16.960Z,14.07
2018-08-13T00:41:17.010Z,14.11
2018-08-13T00:42:16.280Z,14.09
2018-08-13T00:43:16.568Z,14.13
2018-08-13T00:44:16.834Z,14.22
2018-08-13T00:45:17.110Z,14.23
2018-08-13T00:46:16.380Z,14.28
2018-08-13T00:47:16.640Z,14.28
2018-08-13T00:48:16.920Z,14.28
2018-08-13T00:49:17.187Z,14.25
2018-08-13T00:50:16.462Z,14.22
2018-08-13T00:51:16.516Z,14.26
2018-08-13T00:52:16.784Z,14.22
2018-08-13T00:53:17.046Z,14.22
2018-08-13T00:54:16.312Z,14.18
2018-08-13T00:55:16.583Z,14.15
2018-08-13T00:56:16.861Z,14.09
2018-08-13T00:57:17.133Z,14.08
2018-08-13T00:58:16.402Z,14.08
2018-08-13T00:59:16.858Z,14.11
2018-08-13T01:00:17.140Z,14.12
2018-08-13T01:01:17.176Z,14.05
2018-08-13T01:02:16.449Z,14.07
2018-08-13T01:03:16.716Z,14.07
2018-08-13T01:04:16.986Z,14.11
2018-08-13T01:05:16.259Z,14.12
2018-08-13T01:06:16.521Z,14.12
2018-08-13T01:07:16.817Z,14.13
2018-08-13T01:08:17.091Z,14.18
2018-08-13T01:09:16.360Z,14.19
2018-08-13T01:10:16.669Z,14.12
2018-08-13T01:11:16.675Z,14.12
2018-08-13T01:12:16.947Z,14.12
2018-08-13T01:13:16.215Z,14.12
2018-08-13T01:14:16.494Z,14.09
2018-08-13T01:15:16.760Z,14.09
2018-08-13T01:16:17.033Z,14.05
2018-08-13T01:17:16.306Z,14.04
2018-08-13T01:18:16.577Z,14.00
2018-08-13T01:19:16.862Z,14.01
2018-08-13T01:20:17.134Z,14.00
2018-08-13T01:21:17.174Z,14.01
2018-08-13T01:22:16.450Z,14.04
2018-08-13T01:23:16.714Z,14.01
2018-08-13T01:24:16.978Z,13.97
2018-08-13T01:25:16.562Z,13.97
2018-08-13T01:26:16.824Z,13.98
2018-08-13T01:27:17.104Z,13.98
2018-08-13T01:28:16.371Z,13.98
2018-08-13T01:29:16.636Z,14.01
2018-08-13T01:30:16.913Z,13.98
2018-08-13T01:31:16.971Z,13.98
2018-08-13T01:32:16.242Z,13.94
2018-08-13T01:33:16.517Z,13.90
2018-08-13T01:34:16.787Z,13.90
2018-08-13T01:35:17.056Z,13.88
2018-08-13T01:36:16.320Z,13.90
2018-08-13T01:37:16.596Z,13.88
2018-08-13T01:38:16.865Z,13.85
2018-08-13T01:39:17.149Z,13.85
2018-08-13T01:40:16.413Z,13.85
2018-08-13T01:41:16.462Z,13.84
2018-08-13T01:42:16.730Z,13.78
2018-08-13T01:43:17.029Z,13.81
2018-08-13T01:44:16.319Z,13.77
2018-08-13T01:45:16.590Z,13.78
2018-08-13T01:46:16.859Z,13.78
2018-08-13T01:47:17.116Z,13.80
2018-08-13T01:48:16.380Z,13.76
2018-08-13T01:49:16.655Z,13.68
2018-08-13T01:50:16.935Z,13.64
2018-08-13T01:51:16.981Z,13.63
2018-08-13T01:52:16.257Z,13.61
2018-08-13T01:53:16.544Z,13.57
2018-08-13T01:54:16.821Z,13.58
2018-08-13T01:55:17.136Z,13.58
2018-08-13T01:56:16.405Z,13.54
2018-08-13T01:57:16.678Z,13.53
2018-08-13T01:58:16.958Z,13.51
2018-08-13T01:59:16.228Z,13.54
2018-08-13T02:00:16.511Z,13.57
2018-08-13T02:01:16.575Z,13.53
2018-08-13T02:02:16.893Z,13.54
2018-08-13T02:03:17.160Z,13.53
2018-08-13T02:04:16.445Z,13.51
2018-08-13T02:05:16.710Z,13.53
2018-08-13T02:06:16.978Z,13.51
2018-08-13T02:07:16.247Z,13.51
2018-08-13T02:08:16.514Z,13.53
2018-08-13T02:09:17.063Z,13.53
2018-08-13T02:10:16.343Z,13.46
2018-08-13T02:11:16.398Z,13.49
2018-08-13T02:12:16.663Z,13.47
2018-08-13T02:13:16.930Z,13.43
2018-08-13T02:14:17.197Z,13.37
2018-08-13T02:15:16.459Z,13.34
2018-08-13T02:16:16.726Z,13.32
2018-08-13T02:17:17.006Z,13.32
2018-08-13T02:18:16.282Z,13.37
2018-08-13T02:19:16.551Z,13.40
2018-08-13T02:20:16.822Z,13.36
2018-08-13T02:21:16.879Z,13.34
2018-08-13T02:22:17.160Z,13.34
2018-08-13T02:23:16.435Z,13.33
2018-08-13T02:24:16.719Z,13.32
2018-08-13T02:25:16.998Z,13.27
2018-08-13T02:26:16.341Z,13.25
2018-08-13T02:27:16.608Z,13.19
2018-08-13T02:28:16.879Z,13.18
2018-08-13T02:29:17.151Z,13.18
2018-08-13T02:30:16.434Z,13.18
2018-08-13T02:31:16.484Z,13.19
2018-08-13T02:32:16.752Z,13.18
2018-08-13T02:33:17.023Z,13.18
2018-08-13T02:34:16.290Z,13.18
2018-08-13T02:35:16.564Z,13.16
2018-08-13T02:36:16.841Z,13.14
2018-08-13T02:37:17.123Z,13.14
2018-08-13T02:38:16.394Z,13.12
2018-08-13T02:39:16.763Z,13.09
2018-08-13T02:40:16.343Z,13.11
2018-08-13T02:41:16.393Z,13.08
2018-08-13T02:42:16.658Z,13.08
2018-08-13T02:43:16.932Z,13.06
2018-08-13T02:44:17.197Z,13.05
2018-08-13T02:45:16.462Z,13.06
2018-08-13T02:46:16.733Z,13.06
2018-08-13T02:47:17.006Z,13.09
2018-08-13T02:48:16.292Z,13.15
2018-08-13T02:49:16.556Z,13.16
2018-08-13T02:50:16.835Z,13.16
2018-08-13T02:51:16.879Z,13.19
2018-08-13T02:52:17.144Z,13.22
2018-08-13T02:53:16.428Z,13.16
2018-08-13T02:54:16.707Z,13.15
2018-08-13T02:55:16.972Z,13.18
2018-08-13T02:56:16.235Z,13.15
2018-08-13T02:57:16.514Z,13.23
2018-08-13T02:58:16.806Z,13.30
2018-08-13T02:59:16.453Z,13.33
2018-08-13T03:00:16.731Z,13.34
2018-08-13T03:01:16.786Z,13.39
2018-08-13T03:02:17.052Z,13.43
2018-08-13T03:03:16.344Z,13.39
2018-08-13T03:04:16.614Z,13.33
2018-08-13T03:05:16.898Z,13.32
2018-08-13T03:06:17.187Z,13.30
2018-08-13T03:07:16.455Z,13.30
2018-08-13T03:08:16.715Z,13.27
2018-08-13T03:09:16.997Z,13.27
2018-08-13T03:10:16.274Z,13.27
2018-08-13T03:11:16.320Z,13.22
2018-08-13T03:12:16.598Z,13.21
2018-08-13T03:13:16.865Z,13.18
2018-08-13T03:14:17.154Z,13.19
2018-08-13T03:15:16.429Z,13.18
2018-08-13T03:16:16.707Z,13.18
2018-08-13T03:17:16.979Z,13.14
2018-08-13T03:18:16.262Z,13.16
2018-08-13T03:19:16.536Z,13.09
2018-08-13T03:20:16.801Z,13.08
2018-08-13T03:21:16.855Z,13.05
2018-08-13T03:22:17.122Z,13.05
2018-08-13T03:23:16.392Z,13.05
2018-08-13T03:24:16.670Z,13.05
2018-08-13T03:25:16.952Z,13.02
2018-08-13T03:26:16.218Z,12.88
2018-08-13T03:27:16.497Z,12.85
2018-08-13T03:28:16.771Z,12.79
2018-08-13T03:29:17.046Z,12.79
2018-08-13T03:30:16.333Z,12.79
2018-08-13T03:31:16.381Z,12.78
2018-08-13T03:32:16.652Z,12.79
2018-08-13T03:33:16.928Z,12.79
2018-08-13T03:34:17.206Z,12.85
2018-08-13T03:35:16.482Z,12.88
2018-08-13T03:36:16.758Z,12.96
2018-08-13T03:37:17.034Z,13.08
2018-08-13T03:38:16.296Z,13.05
2018-08-13T03:39:16.566Z,12.88
2018-08-13T03:40:16.872Z,12.81
2018-08-13T03:41:16.880Z,12.77
2018-08-13T03:42:17.151Z,12.77
2018-08-13T03:43:16.421Z,12.79
2018-08-13T03:44:16.687Z,12.79
2018-08-13T03:45:16.958Z,12.74
2018-08-13T03:46:16.230Z,12.78
2018-08-13T03:47:16.495Z,12.74
2018-08-13T03:48:16.761Z,12.75
2018-08-13T03:49:17.024Z,12.70
2018-08-13T03:50:16.305Z,12.70
2018-08-13T03:51:16.357Z,12.71
2018-08-13T03:52:16.630Z,12.72
2018-08-13T03:53:16.892Z,12.71
2018-08-13T03:54:17.153Z,12.71
2018-08-13T03:55:16.418Z,12.71
2018-08-13T03:56:16.680Z,12.70
2018-08-13T03:57:16.949Z,12.72
2018-08-13T03:58:16.216Z,12.70
2018-08-13T03:59:16.490Z,12.81
2018-08-13T04:00:16.789Z,12.70
2018-08-13T04:01:16.813Z,12.72
2018-08-13T04:02:17.076Z,12.75
2018-08-13T04:03:16.351Z,12.79
2018-08-13T04:04:16.618Z,12.78
2018-08-13T04:05:16.883Z,12.78
2018-08-13T04:06:17.147Z,12.78
2018-08-13T04:07:16.410Z,12.79
2018-08-13T04:08:16.683Z,12.82
2018-08-13T04:09:16.961Z,12.82
2018-08-13T04:10:16.282Z,12.82
2018-08-13T04:11:16.290Z,12.87
2018-08-13T04:12:16.558Z,12.85
2018-08-13T04:13:16.833Z,12.87
2018-08-13T04:14:17.094Z,12.85
2018-08-13T04:15:16.377Z,12.82
2018-08-13T04:16:16.637Z,12.82
2018-08-13T04:17:16.907Z,12.85
2018-08-13T04:18:17.181Z,12.87
2018-08-13T04:19:16.456Z,12.85
2018-08-13T04:20:16.726Z,12.82
2018-08-13T04:21:16.766Z,12.87
2018-08-13T04:22:17.031Z,12.85
2018-08-13T04:23:16.295Z,12.88
2018-08-13T04:24:16.565Z,12.92
2018-08-13T04:25:16.832Z,12.92
2018-08-13T04:26:17.119Z,12.89
2018-08-13T04:27:16.395Z,12.87
2018-08-13T04:28:16.660Z,12.88
2018-08-13T04:29:16.924Z,12.88
2018-08-13T04:30:16.210Z,12.91
2018-08-13T04:31:16.270Z,12.89
2018-08-13T04:32:16.539Z,12.87
2018-08-13T04:33:16.797Z,12.88
2018-08-13T04:34:17.060Z,12.85
2018-08-13T04:35:16.331Z,12.85
2018-08-13T04:36:16.600Z,12.84
2018-08-13T04:37:16.866Z,12.82
2018-08-13T04:38:17.127Z,12.81
2018-08-13T04:39:16.403Z,12.81
2018-08-13T04:40:16.680Z,12.79
2018-08-13T04:41:16.713Z,12.81
2018-08-13T04:42:16.397Z,12.82
2018-08-13T04:43:16.671Z,12.78
2018-08-13T04:44:16.978Z,12.84
2018-08-13T04:45:16.244Z,12.82
2018-08-13T04:46:16.515Z,12.85
2018-08-13T04:47:16.788Z,12.89
2018-08-13T04:48:17.052Z,12.91
2018-08-13T04:49:16.327Z,12.94
2018-08-13T04:50:16.604Z,12.98
2018-08-13T04:51:16.644Z,13.01
2018-08-13T04:52:17.088Z,12.99
2018-08-13T04:53:16.603Z,13.06
2018-08-13T04:54:16.872Z,13.05
2018-08-13T04:55:17.142Z,13.08
2018-08-13T04:56:16.413Z,13.12
2018-08-13T04:57:16.689Z,13.16
2018-08-13T04:58:16.956Z,13.19
2018-08-13T04:59:16.218Z,13.21
2018-08-13T05:00:16.517Z,13.25
2018-08-13T05:01:16.581Z,13.22
2018-08-13T05:02:16.851Z,13.26
2018-08-13T05:03:17.123Z,13.29
2018-08-13T05:04:16.397Z,13.34
2018-08-13T05:05:16.668Z,13.37
2018-08-13T05:06:16.933Z,13.40
2018-08-13T05:07:17.255Z,13.46
2018-08-13T05:08:16.598Z,13.46
2018-08-13T05:09:16.869Z,13.50
2018-08-13T05:10:17.155Z,13.55
2018-08-13T05:11:17.192Z,13.58
2018-08-13T05:12:16.466Z,13.61
2018-08-13T05:13:16.742Z,13.63
2018-08-13T05:14:17.036Z,13.68
2018-08-13T05:15:16.312Z,13.71
2018-08-13T05:16:16.587Z,13.73
2018-08-13T05:17:16.865Z,13.80
2018-08-13T05:18:17.144Z,13.80
2018-08-13T05:19:16.407Z,13.85
2018-08-13T05:20:16.687Z,13.90
2018-08-13T05:21:16.738Z,13.87
2018-08-13T05:22:17.186Z,13.97
2018-08-13T05:23:16.458Z,14.01
2018-08-13T05:24:16.718Z,14.04
2018-08-13T05:25:16.986Z,14.04
2018-08-13T05:26:16.252Z,14.11
2018-08-13T05:27:16.520Z,14.13
2018-08-13T05:28:16.790Z,14.16
2018-08-13T05:29:17.060Z,14.20
2018-08-13T05:30:16.361Z,14.23
2018-08-13T05:31:16.386Z,14.29
2018-08-13T05:32:16.659Z,14.32
2018-08-13T05:33:16.923Z,14.40
2018-08-13T05:34:17.162Z,14.39
2018-08-13T05:35:16.458Z,14.47
2018-08-13T05:36:16.761Z,14.49
2018-08-13T05:37:17.045Z,14.52
2018-08-13T05:38:16.330Z,14.63
2018-08-13T05:39:16.835Z,14.71
2018-08-13T05:40:17.108Z,14.73
2018-08-13T05:41:17.281Z,14.87
2018-08-13T05:42:16.545Z,14.87
2018-08-13T05:43:16.800Z,14.88
2018-08-13T05:44:17.071Z,14.95
2018-08-13T05:45:16.353Z,14.99
2018-08-13T05:46:16.619Z,15.15
2018-08-13T05:47:16.888Z,15.12
2018-08-13T05:48:17.159Z,15.21
2018-08-13T05:49:16.425Z,15.33
2018-08-13T05:50:16.708Z,15.46
2018-08-13T05:51:16.747Z,15.60
2018-08-13T05:52:17.016Z,15.64
2018-08-13T05:53:16.284Z,15.80
2018-08-13T05:54:16.561Z,15.97
2018-08-13T05:55:16.834Z,16.14
2018-08-13T05:56:17.102Z,16.21
2018-08-13T05:57:16.368Z,16.24
2018-08-13T05:58:16.641Z,16.15
2018-08-13T05:59:16.921Z,16.17
2018-08-13T06:00:17.242Z,16.25
2018-08-13T06:01:16.237Z,16.31
2018-08-13T06:02:16.510Z,16.31
2018-08-13T06:03:16.785Z,16.32
2018-08-13T06:04:17.047Z,16.49
2018-08-13T06:05:16.342Z,16.64
2018-08-13T06:06:16.615Z,16.67
2018-08-13T06:07:16.887Z,16.74
2018-08-13T06:08:17.152Z,16.80
2018-08-13T06:09:16.417Z,16.80
2018-08-13T06:10:16.692Z,16.90
2018-08-13T06:11:16.774Z,17.03
2018-08-13T06:12:17.197Z,17.07
2018-08-13T06:13:16.458Z,17.24
2018-08-13T06:14:16.722Z,17.28
2018-08-13T06:15:16.991Z,17.29
2018-08-13T06:16:16.269Z,17.32
2018-08-13T06:17:16.545Z,17.45
2018-08-13T06:18:16.909Z,17.52
2018-08-13T06:19:16.383Z,17.91
2018-08-13T06:20:16.656Z,17.86
2018-08-13T06:21:16.711Z,17.80
2018-08-13T06:22:17.003Z,18.07
2018-08-13T06:23:16.317Z,18.21
2018-08-13T06:24:16.649Z,18.17
2018-08-13T06:25:17.015Z,18.31
2018-08-13T06:26:16.282Z,18.58
2018-08-13T06:27:16.562Z,18.54
2018-08-13T06:28:16.951Z,18.55
2018-08-13T06:29:16.362Z,18.58
2018-08-13T06:30:16.700Z,18.77
2018-08-13T06:31:16.779Z,18.77
2018-08-13T06:32:17.055Z,18.98
2018-08-13T06:33:16.327Z,19.27
2018-08-13T06:34:16.602Z,19.17
2018-08-13T06:35:16.868Z,19.20
2018-08-13T06:36:17.133Z,19.32
2018-08-13T06:37:16.415Z,19.31
2018-08-13T06:38:16.829Z,19.34
2018-08-13T06:39:17.126Z,19.35
2018-08-13T06:40:16.416Z,19.35
2018-08-13T06:41:16.453Z,19.45
2018-08-13T06:42:16.727Z,19.44
2018-08-13T06:43:16.998Z,19.53
2018-08-13T06:44:16.286Z,19.53
2018-08-13T06:45:16.631Z,19.66
2018-08-13T06:46:16.903Z,19.91
2018-08-13T06:47:17.180Z,20.29
2018-08-13T06:48:16.454Z,20.24
2018-08-13T06:49:16.720Z,20.32
2018-08-13T06:50:17.014Z,20.46
2018-08-13T06:51:17.020Z,20.62
2018-08-13T06:52:16.295Z,20.84
2018-08-13T06:53:16.569Z,20.71
2018-08-13T06:54:16.834Z,20.78
2018-08-13T06:55:17.116Z,20.89
2018-08-13T06:56:16.390Z,21.25
2018-08-13T06:57:16.667Z,21.41
2018-08-13T06:58:16.932Z,21.54
2018-08-13T06:59:17.202Z,21.55
2018-08-13T07:00:16.479Z,21.61
2018-08-13T07:01:16.553Z,21.61
2018-08-13T07:02:16.818Z,21.61
2018-08-13T07:03:17.353Z,21.62
2018-08-13T07:04:16.618Z,21.97
2018-08-13T07:05:16.921Z,21.99
2018-08-13T07:06:17.191Z,22.03
2018-08-13T07:07:16.470Z,22.17
2018-08-13T07:08:16.739Z,22.38
2018-08-13T07:09:17.009Z,22.48
2018-08-13T07:10:16.302Z,22.40
2018-08-13T07:11:16.349Z,22.51
2018-08-13T07:12:16.623Z,22.61
2018-08-13T07:13:16.886Z,22.57
2018-08-13T07:14:17.153Z,22.70
2018-08-13T07:15:16.426Z,22.74
2018-08-13T07:16:16.693Z,22.76
2018-08-13T07:17:16.967Z,22.76
2018-08-13T07:18:16.237Z,22.86
2018-08-13T07:19:16.517Z,23.00
2018-08-13T07:20:16.812Z,23.03
2018-08-13T07:21:16.834Z,23.00
2018-08-13T07:22:17.199Z,23.12
2018-08-13T07:23:16.665Z,23.12
2018-08-13T07:24:16.942Z,23.07
2018-08-13T07:25:16.221Z,23.13
2018-08-13T07:26:16.508Z,23.10
2018-08-13T07:27:16.776Z,23.02
2018-08-13T07:28:17.050Z,23.03
2018-08-13T07:29:16.328Z,23.07
2018-08-13T07:30:16.620Z,23.12
2018-08-13T07:31:16.667Z,23.16
2018-08-13T07:32:16.929Z,23.10
2018-08-13T07:33:17.230Z,23.25
2018-08-13T07:34:16.533Z,23.26
2018-08-13T07:35:16.801Z,23.26
2018-08-13T07:36:17.069Z,23.26
2018-08-13T07:37:16.338Z,23.37
2018-08-13T07:38:16.887Z,23.33
2018-08-13T07:39:17.193Z,23.43
2018-08-13T07:40:16.530Z,23.54
2018-08-13T07:41:16.576Z,23.57
2018-08-13T07:42:16.844Z,23.54
2018-08-13T07:43:17.131Z,23.51
2018-08-13T07:44:16.402Z,23.46
2018-08-13T07:45:16.662Z,23.50
2018-08-13T07:46:16.939Z,23.68
2018-08-13T07:47:16.243Z,23.85
2018-08-13T07:48:16.517Z,23.94
2018-08-13T07:49:16.787Z,24.01
2018-08-13T07:50:17.063Z,23.98
2018-08-13T07:51:17.113Z,24.01
2018-08-13T07:52:16.382Z,24.04
2018-08-13T07:53:16.660Z,24.05
2018-08-13T07:54:16.930Z,24.11
2018-08-13T07:55:17.220Z,24.16
2018-08-13T07:56:16.492Z,24.16
2018-08-13T07:57:16.765Z,24.20
2018-08-13T07:58:17.041Z,24.23
2018-08-13T07:59:16.302Z,24.27
2018-08-13T08:00:16.597Z,24.30
2018-08-13T08:01:16.613Z,24.38
2018-08-13T08:02:16.879Z,24.51
2018-08-13T08:03:17.154Z,24.50
2018-08-13T08:04:16.439Z,24.60
2018-08-13T08:05:16.708Z,24.67
2018-08-13T08:06:16.978Z,24.78
2018-08-13T08:07:16.253Z,24.85
2018-08-13T08:08:16.520Z,24.94
2018-08-13T08:09:16.795Z,25.07
2018-08-13T08:10:16.318Z,25.11
2018-08-13T08:11:16.354Z,25.08
2018-08-13T08:12:16.631Z,25.07
2018-08-13T08:13:16.898Z,25.07
2018-08-13T08:14:17.189Z,25.19
2018-08-13T08:15:16.488Z,25.23
2018-08-13T08:16:16.769Z,25.25
2018-08-13T08:17:17.037Z,25.36
2018-08-13T08:18:16.307Z,25.46
2018-08-13T08:19:16.574Z,25.59
2018-08-13T08:20:16.855Z,25.63
2018-08-13T08:21:16.893Z,25.90
2018-08-13T08:22:17.200Z,25.79
2018-08-13T08:23:16.472Z,26.11
2018-08-13T08:24:16.746Z,26.17
2018-08-13T08:25:17.010Z,26.36
2018-08-13T08:26:16.292Z,26.31
2018-08-13T08:27:16.572Z,26.43
2018-08-13T08:28:16.841Z,26.58
2018-08-13T08:29:17.111Z,26.80
2018-08-13T08:30:16.534Z,27.11
2018-08-13T08:31:16.573Z,27.28
2018-08-13T08:32:16.841Z,26.91
2018-08-13T08:33:17.109Z,26.98
2018-08-13T08:34:16.382Z,26.94
2018-08-13T08:35:16.659Z,27.10
2018-08-13T08:36:16.964Z,27.08
2018-08-13T08:37:16.236Z,26.85
2018-08-13T08:38:16.509Z,26.70
2018-08-13T08:39:16.767Z,26.63
2018-08-13T08:40:17.044Z,26.49
2018-08-13T08:41:17.112Z,26.49
2018-08-13T08:42:16.374Z,26.66
2018-08-13T08:43:16.642Z,26.73
2018-08-13T08:44:16.917Z,26.76
2018-08-13T08:45:17.190Z,26.77
2018-08-13T08:46:16.467Z,26.73
2018-08-13T08:47:16.729Z,26.79
2018-08-13T08:48:16.997Z,26.74
2018-08-13T08:49:16.267Z,26.86
2018-08-13T08:50:16.545Z,26.76
2018-08-13T08:51:16.608Z,26.73
2018-08-13T08:52:16.883Z,26.52
2018-08-13T08:53:17.149Z,26.62
2018-08-13T08:54:16.417Z,26.56
2018-08-13T08:55:16.683Z,26.58
2018-08-13T08:56:16.955Z,26.64
2018-08-13T08:57:16.221Z,26.53
2018-08-13T08:58:16.484Z,26.45
2018-08-13T08:59:16.759Z,26.52
2018-08-13T09:00:17.051Z,26.55
2018-08-13T09:01:17.099Z,26.63
2018-08-13T09:02:16.364Z,26.67
2018-08-13T09:03:16.645Z,26.67
2018-08-13T09:04:16.909Z,26.71
2018-08-13T09:05:17.190Z,26.74
2018-08-13T09:06:16.468Z,27.01
2018-08-13T09:07:16.727Z,27.13
2018-08-13T09:08:17.002Z,27.34
2018-08-13T09:09:16.270Z,27.58
2018-08-13T09:10:16.568Z,27.77
2018-08-13T09:11:16.617Z,27.76
2018-08-13T09:12:16.880Z,27.89
2018-08-13T09:13:17.149Z,27.63
2018-08-13T09:14:16.464Z,27.68
2018-08-13T09:15:16.962Z,27.63
2018-08-13T09:16:16.240Z,27.68
2018-08-13T09:17:16.521Z,27.68
2018-08-13T09:18:16.799Z,27.79
2018-08-13T09:19:17.087Z,27.69
2018-08-13T09:20:16.379Z,27.69
2018-08-13T09:21:16.389Z,27.65
2018-08-13T09:22:16.659Z,27.41
2018-08-13T09:23:16.926Z,27.49
2018-08-13T09:24:17.196Z,27.45
2018-08-13T09:25:16.469Z,27.34
2018-08-13T09:26:16.737Z,27.52
2018-08-13T09:27:17.007Z,27.73
2018-08-13T09:28:16.270Z,27.89
2018-08-13T09:29:16.538Z,27.97
2018-08-13T09:30:16.821Z,27.86
2018-08-13T09:31:16.858Z,27.82
2018-08-13T09:32:17.126Z,27.82
2018-08-13T09:33:16.394Z,27.46
2018-08-13T09:34:16.672Z,27.53
2018-08-13T09:35:16.943Z,27.75
2018-08-13T09:36:16.229Z,27.90
2018-08-13T09:37:16.507Z,27.56
2018-08-13T09:38:16.779Z,27.58
2018-08-13T09:39:17.053Z,27.51
2018-08-13T09:40:16.362Z,27.42
2018-08-13T09:41:16.397Z,27.55
2018-08-13T09:42:16.668Z,27.77
2018-08-13T09:43:16.936Z,27.59
2018-08-13T09:44:16.218Z,27.46
2018-08-13T09:45:16.492Z,27.73
2018-08-13T09:46:16.772Z,27.65
2018-08-13T09:47:17.034Z,27.82
2018-08-13T09:48:16.322Z,27.83
2018-08-13T09:49:16.920Z,27.76
2018-08-13T09:50:17.208Z,27.73
2018-08-13T09:51:16.251Z,27.68
2018-08-13T09:52:16.529Z,27.45
2018-08-13T09:53:16.801Z,27.29
2018-08-13T09:54:17.085Z,27.48
2018-08-13T09:55:16.357Z,27.37
2018-08-13T09:56:16.646Z,27.29
2018-08-13T09:57:16.917Z,27.62
2018-08-13T09:58:17.186Z,27.15
2018-08-13T09:59:16.469Z,27.21
2018-08-13T10:00:16.839Z,27.26
2018-08-13T10:01:16.814Z,27.26
2018-08-13T10:02:17.087Z,27.31
2018-08-13T10:03:16.361Z,27.35
2018-08-13T10:04:16.648Z,27.45
2018-08-13T10:05:16.912Z,27.34
2018-08-13T10:06:17.195Z,27.07
2018-08-13T10:07:16.460Z,27.29
2018-08-13T10:08:16.722Z,27.29
2018-08-13T10:09:17.018Z,27.26
2018-08-13T10:10:16.378Z,27.26
2018-08-13T10:11:16.418Z,27.40
2018-08-13T10:12:16.705Z,27.61
2018-08-13T10:13:16.974Z,27.79
2018-08-13T10:14:16.243Z,27.34
2018-08-13T10:15:16.513Z,27.49
2018-08-13T10:16:16.752Z,27.32
2018-08-13T10:17:17.034Z,27.41
2018-08-13T10:18:16.310Z,27.13
2018-08-13T10:19:16.870Z,26.96
2018-08-13T10:20:17.159Z,27.18
2018-08-13T10:21:17.204Z,27.10
2018-08-13T10:22:16.478Z,27.05
2018-08-13T10:23:16.747Z,26.94
2018-08-13T10:24:17.023Z,26.82
2018-08-13T10:25:16.299Z,26.59
2018-08-13T10:26:16.568Z,26.53
2018-08-13T10:27:16.838Z,26.49
2018-08-13T10:28:17.103Z,26.70
2018-08-13T10:29:16.374Z,26.80
2018-08-13T10:30:16.654Z,26.70
2018-08-13T10:31:16.702Z,26.45
2018-08-13T10:32:16.975Z,26.62
2018-08-13T10:33:16.240Z,26.73
2018-08-13T10:34:16.515Z,26.86
2018-08-13T10:35:16.797Z,27.15
2018-08-13T10:36:17.122Z,27.00
2018-08-13T10:37:16.413Z,27.13
2018-08-13T10:38:16.690Z,26.94
2018-08-13T10:39:16.965Z,27.18
2018-08-13T10:40:16.250Z,27.28
2018-08-13T10:41:16.321Z,27.28
2018-08-13T10:42:16.591Z,27.00
2018-08-13T10:43:16.861Z,27.24
2018-08-13T10:44:17.144Z,27.10
2018-08-13T10:45:16.424Z,27.18
2018-08-13T10:46:16.718Z,27.31
2018-08-13T10:47:16.985Z,27.32
2018-08-13T10:48:16.249Z,27.29
2018-08-13T10:49:16.515Z,27.29
2018-08-13T10:50:16.816Z,27.24
2018-08-13T10:51:16.836Z,26.79
2018-08-13T10:52:17.108Z,26.43
2018-08-13T10:53:16.374Z,26.66
2018-08-13T10:54:16.637Z,26.69
2018-08-13T10:55:16.927Z,26.36
2018-08-13T10:56:17.283Z,26.09
2018-08-13T10:57:16.786Z,26.13
2018-08-13T10:58:17.059Z,26.09
2018-08-13T10:59:16.340Z,26.31
2018-08-13T11:00:16.616Z,26.07
2018-08-13T11:01:16.703Z,25.85
2018-08-13T11:02:17.156Z,25.59
2018-08-13T11:03:16.427Z,25.76
2018-08-13T11:04:16.706Z,25.97
2018-08-13T11:05:16.982Z,25.81
2018-08-13T11:06:16.261Z,25.64
2018-08-13T11:07:16.530Z,25.53
2018-08-13T11:08:16.796Z,25.49
2018-08-13T11:09:17.061Z,25.88
2018-08-13T11:10:16.409Z,26.05
2018-08-13T11:11:16.380Z,26.20
2018-08-13T11:12:16.670Z,26.13
2018-08-13T11:13:16.938Z,26.02
2018-08-13T11:14:17.206Z,26.20
2018-08-13T11:15:16.474Z,26.31
2018-08-13T11:16:16.744Z,25.93
2018-08-13T11:17:17.013Z,26.07
2018-08-13T11:18:16.279Z,26.01
2018-08-13T11:19:16.553Z,25.70
2018-08-13T11:20:16.860Z,25.23
2018-08-13T11:21:16.869Z,25.14
2018-08-13T11:22:17.147Z,25.05
2018-08-13T11:23:16.414Z,25.04
2018-08-13T11:24:16.695Z,25.14
2018-08-13T11:25:17.045Z,25.22
2018-08-13T11:26:16.377Z,25.22
2018-08-13T11:27:16.645Z,25.36
2018-08-13T11:28:16.910Z,25.14
2018-08-13T11:29:17.185Z,25.12
2018-08-13T11:30:16.465Z,25.16
2018-08-13T11:31:16.557Z,25.16
2018-08-13T11:32:17.031Z,25.12
2018-08-13T11:33:16.297Z,25.26
2018-08-13T11:34:16.569Z,25.16
2018-08-13T11:35:16.844Z,25.11
2018-08-13T11:36:17.115Z,25.07
2018-08-13T11:37:16.393Z,25.05
2018-08-13T11:38:16.665Z,25.15
2018-08-13T11:39:16.953Z,24.97
2018-08-13T11:40:16.248Z,24.92
2018-08-13T11:41:16.277Z,24.81
2018-08-13T11:42:16.549Z,24.81
2018-08-13T11:43:16.811Z,24.84
2018-08-13T11:44:17.087Z,24.92
2018-08-13T11:45:16.364Z,24.95
2018-08-13T11:46:16.640Z,25.04
2018-08-13T11:47:16.939Z,25.04
2018-08-13T11:48:16.217Z,24.75
2018-08-13T11:49:16.485Z,24.75
2018-08-13T11:50:16.774Z,24.84
2018-08-13T11:51:16.816Z,24.78
2018-08-13T11:52:17.089Z,24.64
2018-08-13T11:53:16.348Z,24.56
2018-08-13T11:54:16.603Z,24.75
2018-08-13T11:55:16.875Z,24.59
2018-08-13T11:56:17.212Z,24.47
2018-08-13T11:57:16.532Z,24.47
2018-08-13T11:58:16.806Z,24.60
2018-08-13T11:59:17.073Z,24.57
2018-08-13T12:00:16.361Z,24.64
2018-08-13T12:01:16.412Z,24.78
2018-08-13T12:02:16.689Z,24.72
2018-08-13T12:03:16.967Z,24.57
2018-08-13T12:04:16.235Z,24.70
2018-08-13T12:05:16.514Z,24.44
2018-08-13T12:06:16.793Z,24.57
2018-08-13T12:07:17.079Z,24.08
2018-08-13T12:08:16.395Z,23.98
2018-08-13T12:09:16.756Z,24.05
2018-08-13T12:10:17.027Z,24.02
2018-08-13T12:11:17.084Z,24.05
2018-08-13T12:12:16.350Z,23.94
2018-08-13T12:13:16.618Z,23.73
2018-08-13T12:14:16.889Z,23.56
2018-08-13T12:15:17.155Z,23.47
2018-08-13T12:16:16.426Z,23.48
2018-08-13T12:17:16.703Z,23.68
2018-08-13T12:18:16.970Z,23.77
2018-08-13T12:19:16.234Z,24.01
2018-08-13T12:20:16.507Z,24.05
2018-08-13T12:21:16.553Z,23.73
2018-08-13T12:22:16.839Z,23.56
2018-08-13T12:23:17.113Z,23.58
2018-08-13T12:24:16.391Z,23.80
2018-08-13T12:25:16.667Z,23.51
2018-08-13T12:26:16.944Z,23.58
2018-08-13T12:27:16.273Z,23.58
2018-08-13T12:28:16.537Z,23.58
2018-08-13T12:29:16.803Z,23.58
2018-08-13T12:30:17.109Z,23.73
2018-08-13T12:31:17.120Z,23.89
2018-08-13T12:32:16.384Z,24.04
2018-08-13T12:33:16.648Z,23.78
2018-08-13T12:34:16.911Z,23.51
2018-08-13T12:35:17.174Z,23.48
2018-08-13T12:36:16.441Z,23.71
2018-08-13T12:37:16.718Z,23.64
2018-08-13T12:38:16.986Z,23.83
2018-08-13T12:39:16.252Z,23.92
2018-08-13T12:40:16.531Z,23.73
2018-08-13T12:41:16.575Z,23.73
2018-08-13T12:42:16.839Z,23.71
2018-08-13T12:43:17.104Z,23.74
2018-08-13T12:44:16.379Z,23.99
2018-08-13T12:45:16.664Z,24.09
2018-08-13T12:46:16.949Z,23.80
2018-08-13T12:47:16.226Z,24.01
2018-08-13T12:48:16.496Z,23.87
2018-08-13T12:49:16.770Z,23.84
2018-08-13T12:50:17.036Z,23.96
2018-08-13T12:51:17.077Z,23.92
2018-08-13T12:52:16.349Z,23.89